sensor_id;sensor_type;location;lat;lon;timestamp;temperature;humidity
2010;DHT22;1008;47.404;8.502;2023-02-22T00:00:25;10.10;99.90
2010;DHT22;1008;47.404;8.502;2023-02-22T00:03:05;9.70;99.90
2010;DHT22;1008;47.404;8.502;2023-02-22T00:05:32;9.60;99.90
2010;DHT22;1008;47.404;8.502;2023-02-22T00:07:59;9.70;99.90
2010;DHT22;1008;47.404;8.502;2023-02-22T00:10:27;9.70;99.90
2010;DHT22;1008;47.404;8.502;2023-02-22T00:12:54;9.60;99.90
2010;DHT22;1008;47.404;8.502;2023-02-22T00:15:22;9.40;99.90
2010;DHT22;1008;47.404;8.502;2023-02-22T00:17:52;9.40;99.90
2010;DHT22;1008;47.404;8.502;2023-02-22T00:20:19;9.50;99.90
2010;DHT22;1008;47.404;8.502;2023-02-22T00:22:48;9.60;99.90
2010;DHT22;1008;47.404;8.502;2023-02-22T00:25:17;9.60;99.90
2010;DHT22;1008;47.404;8.502;2023-02-22T00:27:46;9.40;99.90
2010;DHT22;1008;47.404;8.502;2023-02-22T00:30:14;9.30;99.90
2010;DHT22;1008;47.404;8.502;2023-02-22T00:32:43;9.50;99.90
2010;DHT22;1008;47.404;8.502;2023-02-22T00:35:10;9.40;99.90
2010;DHT22;1008;47.404;8.502;2023-02-22T00:37:37;9.10;99.90
2010;DHT22;1008;47.404;8.502;2023-02-22T00:40:07;9.20;99.90
2010;DHT22;1008;47.404;8.502;2023-02-22T00:42:34;9.40;99.90
2010;DHT22;1008;47.404;8.502;2023-02-22T00:45:02;9.60;99.90
2010;DHT22;1008;47.404;8.502;2023-02-22T00:47:29;9.40;99.90
2010;DHT22;1008;47.404;8.502;2023-02-22T00:49:56;9.50;99.90
2010;DHT22;1008;47.404;8.502;2023-02-22T00:52:23;9.50;99.90
2010;DHT22;1008;47.404;8.502;2023-02-22T00:54:50;9.40;99.90
2010;DHT22;1008;47.404;8.502;2023-02-22T00:57:17;9.40;99.90
2010;DHT22;1008;47.404;8.502;2023-02-22T00:59:44;9.20;99.90
2010;DHT22;1008;47.404;8.502;2023-02-22T01:02:12;9.20;99.90
2010;DHT22;1008;47.404;8.502;2023-02-22T01:04:39;9.10;99.90
2010;DHT22;1008;47.404;8.502;2023-02-22T01:07:06;9.10;99.90
2010;DHT22;1008;47.404;8.502;2023-02-22T01:09:32;9.00;99.90
2010;DHT22;1008;47.404;8.502;2023-02-22T01:12:00;9.00;99.90
2010;DHT22;1008;47.404;8.502;2023-02-22T01:14:27;9.00;99.90
2010;DHT22;1008;47.404;8.502;2023-02-22T01:16:55;8.90;99.90
2010;DHT22;1008;47.404;8.502;2023-02-22T01:19:23;9.00;99.90
2010;DHT22;1008;47.404;8.502;2023-02-22T01:21:50;8.90;99.90
2010;DHT22;1008;47.404;8.502;2023-02-22T01:24:18;8.90;99.90
2010;DHT22;1008;47.404;8.502;2023-02-22T01:26:50;8.80;99.90
2010;DHT22;1008;47.404;8.502;2023-02-22T01:29:18;8.80;99.90
2010;DHT22;1008;47.404;8.502;2023-02-22T01:31:50;8.90;99.90
2010;DHT22;1008;47.404;8.502;2023-02-22T01:34:18;8.80;99.90
2010;DHT22;1008;47.404;8.502;2023-02-22T01:36:47;9.10;99.90
2010;DHT22;1008;47.404;8.502;2023-02-22T01:39:13;8.70;99.90
2010;DHT22;1008;47.404;8.502;2023-02-22T01:41:40;8.60;99.90
2010;DHT22;1008;47.404;8.502;2023-02-22T01:44:18;8.60;99.90
2010;DHT22;1008;47.404;8.502;2023-02-22T01:46:45;8.50;99.90
2010;DHT22;1008;47.404;8.502;2023-02-22T01:49:13;8.50;99.90
2010;DHT22;1008;47.404;8.502;2023-02-22T01:51:43;8.50;99.90
2010;DHT22;1008;47.404;8.502;2023-02-22T01:54:14;8.40;99.90
2010;DHT22;1008;47.404;8.502;2023-02-22T01:56:47;8.70;99.90
2010;DHT22;1008;47.404;8.502;2023-02-22T01:59:16;8.50;99.90
2010;DHT22;1008;47.404;8.502;2023-02-22T02:01:44;8.50;99.90
2010;DHT22;1008;47.404;8.502;2023-02-22T02:04:13;8.70;99.90
2010;DHT22;1008;47.404;8.502;2023-02-22T02:06:41;8.60;99.90
2010;DHT22;1008;47.404;8.502;2023-02-22T02:09:20;8.90;99.90
2010;DHT22;1008;47.404;8.502;2023-02-22T02:11:49;8.60;99.90
2010;DHT22;1008;47.404;8.502;2023-02-22T02:14:16;8.60;99.90
2010;DHT22;1008;47.404;8.502;2023-02-22T02:16:47;8.50;99.90
2010;DHT22;1008;47.404;8.502;2023-02-22T02:19:19;8.50;99.90
2010;DHT22;1008;47.404;8.502;2023-02-22T02:22:12;8.50;99.90
2010;DHT22;1008;47.404;8.502;2023-02-22T02:24:56;8.50;99.90
2010;DHT22;1008;47.404;8.502;2023-02-22T02:27:40;8.40;99.90
2010;DHT22;1008;47.404;8.502;2023-02-22T02:30:33;8.50;99.90
2010;DHT22;1008;47.404;8.502;2023-02-22T02:33:05;8.60;99.90
2010;DHT22;1008;47.404;8.502;2023-02-22T02:35:49;8.60;99.90
2010;DHT22;1008;47.404;8.502;2023-02-22T02:38:26;8.60;99.90
2010;DHT22;1008;47.404;8.502;2023-02-22T02:41:03;8.60;99.90
2010;DHT22;1008;47.404;8.502;2023-02-22T02:43:35;8.30;99.90
2010;DHT22;1008;47.404;8.502;2023-02-22T02:46:07;8.40;99.90
2010;DHT22;1008;47.404;8.502;2023-02-22T02:48:40;8.40;99.90
2010;DHT22;1008;47.404;8.502;2023-02-22T02:51:10;8.40;99.90
2010;DHT22;1008;47.404;8.502;2023-02-22T02:53:43;8.70;99.90
2010;DHT22;1008;47.404;8.502;2023-02-22T02:56:11;8.60;99.90
2010;DHT22;1008;47.404;8.502;2023-02-22T02:58:45;8.40;99.90
2010;DHT22;1008;47.404;8.502;2023-02-22T03:01:21;8.40;99.90
2010;DHT22;1008;47.404;8.502;2023-02-22T03:04:04;8.40;99.90
2010;DHT22;1008;47.404;8.502;2023-02-22T03:06:54;8.40;99.90
2010;DHT22;1008;47.404;8.502;2023-02-22T03:09:39;8.50;99.90
2010;DHT22;1008;47.404;8.502;2023-02-22T03:12:29;8.30;99.90
2010;DHT22;1008;47.404;8.502;2023-02-22T03:15:07;8.20;99.90
2010;DHT22;1008;47.404;8.502;2023-02-22T03:17:43;8.20;99.90
2010;DHT22;1008;47.404;8.502;2023-02-22T03:20:21;8.20;99.90
2010;DHT22;1008;47.404;8.502;2023-02-22T03:22:58;8.10;99.90
2010;DHT22;1008;47.404;8.502;2023-02-22T03:25:31;8.20;99.90
2010;DHT22;1008;47.404;8.502;2023-02-22T03:28:02;8.50;99.90
2010;DHT22;1008;47.404;8.502;2023-02-22T03:30:33;8.10;99.90
2010;DHT22;1008;47.404;8.502;2023-02-22T03:33:05;8.10;99.90
2010;DHT22;1008;47.404;8.502;2023-02-22T03:35:37;8.00;99.90
2010;DHT22;1008;47.404;8.502;2023-02-22T03:38:08;7.90;99.90
2010;DHT22;1008;47.404;8.502;2023-02-22T03:40:40;8.10;99.90
2010;DHT22;1008;47.404;8.502;2023-02-22T03:43:10;8.10;99.90
2010;DHT22;1008;47.404;8.502;2023-02-22T03:45:39;7.90;99.90
2010;DHT22;1008;47.404;8.502;2023-02-22T03:48:15;8.00;99.90
2010;DHT22;1008;47.404;8.502;2023-02-22T03:50:45;8.00;99.90
2010;DHT22;1008;47.404;8.502;2023-02-22T03:53:12;8.00;99.90
2010;DHT22;1008;47.404;8.502;2023-02-22T03:55:39;8.00;99.90
2010;DHT22;1008;47.404;8.502;2023-02-22T03:58:09;8.00;99.90
2010;DHT22;1008;47.404;8.502;2023-02-22T04:00:37;8.10;99.90
2010;DHT22;1008;47.404;8.502;2023-02-22T04:03:04;8.00;99.90
2010;DHT22;1008;47.404;8.502;2023-02-22T04:05:30;7.90;99.90
2010;DHT22;1008;47.404;8.502;2023-02-22T04:07:59;8.00;99.90
2010;DHT22;1008;47.404;8.502;2023-02-22T04:10:25;7.80;99.90
2010;DHT22;1008;47.404;8.502;2023-02-22T04:12:52;7.80;99.90
2010;DHT22;1008;47.404;8.502;2023-02-22T04:15:21;7.80;99.90
2010;DHT22;1008;47.404;8.502;2023-02-22T04:17:48;7.80;99.90
2010;DHT22;1008;47.404;8.502;2023-02-22T04:20:16;7.80;99.90
2010;DHT22;1008;47.404;8.502;2023-02-22T04:22:44;7.80;99.90
2010;DHT22;1008;47.404;8.502;2023-02-22T04:25:13;7.80;99.90
2010;DHT22;1008;47.404;8.502;2023-02-22T04:27:39;7.80;99.90
2010;DHT22;1008;47.404;8.502;2023-02-22T04:30:07;7.70;99.90
2010;DHT22;1008;47.404;8.502;2023-02-22T04:32:34;7.70;99.90
2010;DHT22;1008;47.404;8.502;2023-02-22T04:35:01;7.70;99.90
2010;DHT22;1008;47.404;8.502;2023-02-22T04:37:28;7.80;99.90
2010;DHT22;1008;47.404;8.502;2023-02-22T04:39:55;8.00;99.90
2010;DHT22;1008;47.404;8.502;2023-02-22T04:42:23;7.90;99.90
2010;DHT22;1008;47.404;8.502;2023-02-22T04:44:49;8.00;99.90
2010;DHT22;1008;47.404;8.502;2023-02-22T04:47:16;7.80;99.90
2010;DHT22;1008;47.404;8.502;2023-02-22T04:49:43;7.90;99.90
2010;DHT22;1008;47.404;8.502;2023-02-22T04:52:10;7.80;99.90
2010;DHT22;1008;47.404;8.502;2023-02-22T04:54:37;7.80;99.90
2010;DHT22;1008;47.404;8.502;2023-02-22T04:57:03;8.10;99.90
2010;DHT22;1008;47.404;8.502;2023-02-22T04:59:31;7.80;99.90
2010;DHT22;1008;47.404;8.502;2023-02-22T05:01:58;7.90;99.90
2010;DHT22;1008;47.404;8.502;2023-02-22T05:04:26;7.80;99.90
2010;DHT22;1008;47.404;8.502;2023-02-22T05:06:52;7.80;99.90
2010;DHT22;1008;47.404;8.502;2023-02-22T05:09:19;7.90;99.90
2010;DHT22;1008;47.404;8.502;2023-02-22T05:11:46;8.00;99.90
2010;DHT22;1008;47.404;8.502;2023-02-22T05:14:13;7.80;99.90
2010;DHT22;1008;47.404;8.502;2023-02-22T05:16:41;7.50;99.90
2010;DHT22;1008;47.404;8.502;2023-02-22T05:19:08;7.50;99.90
2010;DHT22;1008;47.404;8.502;2023-02-22T05:21:35;7.60;99.90
2010;DHT22;1008;47.404;8.502;2023-02-22T05:24:02;7.60;99.90
2010;DHT22;1008;47.404;8.502;2023-02-22T05:26:29;7.50;99.90
2010;DHT22;1008;47.404;8.502;2023-02-22T05:28:55;7.60;99.90
2010;DHT22;1008;47.404;8.502;2023-02-22T05:31:22;7.50;99.90
2010;DHT22;1008;47.404;8.502;2023-02-22T05:33:50;7.40;99.90
2010;DHT22;1008;47.404;8.502;2023-02-22T05:36:17;7.60;99.90
2010;DHT22;1008;47.404;8.502;2023-02-22T05:38:44;7.80;99.90
2010;DHT22;1008;47.404;8.502;2023-02-22T05:41:11;7.70;99.90
2010;DHT22;1008;47.404;8.502;2023-02-22T05:43:39;7.70;99.90
2010;DHT22;1008;47.404;8.502;2023-02-22T05:46:06;7.70;99.90
2010;DHT22;1008;47.404;8.502;2023-02-22T05:48:33;7.70;99.90
2010;DHT22;1008;47.404;8.502;2023-02-22T05:51:01;7.60;99.90
2010;DHT22;1008;47.404;8.502;2023-02-22T05:53:29;7.60;99.90
2010;DHT22;1008;47.404;8.502;2023-02-22T05:55:55;7.70;99.90
2010;DHT22;1008;47.404;8.502;2023-02-22T05:58:22;7.70;99.90
2010;DHT22;1008;47.404;8.502;2023-02-22T06:00:49;7.60;99.90
2010;DHT22;1008;47.404;8.502;2023-02-22T06:03:16;7.80;99.90
2010;DHT22;1008;47.404;8.502;2023-02-22T06:05:42;7.80;99.90
2010;DHT22;1008;47.404;8.502;2023-02-22T06:08:10;7.70;99.90
2010;DHT22;1008;47.404;8.502;2023-02-22T06:10:37;7.70;99.90
2010;DHT22;1008;47.404;8.502;2023-02-22T06:13:05;7.60;99.90
2010;DHT22;1008;47.404;8.502;2023-02-22T06:15:31;7.60;99.90
2010;DHT22;1008;47.404;8.502;2023-02-22T06:17:59;7.70;99.90
2010;DHT22;1008;47.404;8.502;2023-02-22T06:20:27;7.70;99.90
2010;DHT22;1008;47.404;8.502;2023-02-22T06:22:55;7.90;99.90
2010;DHT22;1008;47.404;8.502;2023-02-22T06:25:26;8.10;99.90
2010;DHT22;1008;47.404;8.502;2023-02-22T06:27:55;8.30;99.90
2010;DHT22;1008;47.404;8.502;2023-02-22T06:30:23;8.50;99.90
2010;DHT22;1008;47.404;8.502;2023-02-22T06:32:50;8.40;99.90
2010;DHT22;1008;47.404;8.502;2023-02-22T06:35:17;8.40;99.90
2010;DHT22;1008;47.404;8.502;2023-02-22T06:37:44;8.50;99.90
2010;DHT22;1008;47.404;8.502;2023-02-22T06:40:12;8.50;99.90
2010;DHT22;1008;47.404;8.502;2023-02-22T06:42:40;8.40;99.90
2010;DHT22;1008;47.404;8.502;2023-02-22T06:45:09;8.30;99.90
2010;DHT22;1008;47.404;8.502;2023-02-22T06:47:37;8.10;99.90
2010;DHT22;1008;47.404;8.502;2023-02-22T06:50:06;8.00;99.90
2010;DHT22;1008;47.404;8.502;2023-02-22T06:52:33;7.90;99.90
2010;DHT22;1008;47.404;8.502;2023-02-22T06:55:00;7.90;99.90
2010;DHT22;1008;47.404;8.502;2023-02-22T06:57:26;8.00;99.90
2010;DHT22;1008;47.404;8.502;2023-02-22T06:59:54;7.90;99.90
2010;DHT22;1008;47.404;8.502;2023-02-22T07:02:21;7.90;99.90
2010;DHT22;1008;47.404;8.502;2023-02-22T07:04:48;8.00;99.90
2010;DHT22;1008;47.404;8.502;2023-02-22T07:07:15;8.00;99.90
2010;DHT22;1008;47.404;8.502;2023-02-22T07:09:45;7.90;99.90
2010;DHT22;1008;47.404;8.502;2023-02-22T07:12:12;8.00;99.90
2010;DHT22;1008;47.404;8.502;2023-02-22T07:14:39;8.00;99.90
2010;DHT22;1008;47.404;8.502;2023-02-22T07:17:07;8.00;99.90
2010;DHT22;1008;47.404;8.502;2023-02-22T07:19:34;7.90;99.90
2010;DHT22;1008;47.404;8.502;2023-02-22T07:22:00;8.10;99.90
2010;DHT22;1008;47.404;8.502;2023-02-22T07:24:27;8.00;99.90
2010;DHT22;1008;47.404;8.502;2023-02-22T07:26:54;8.10;99.90
2010;DHT22;1008;47.404;8.502;2023-02-22T07:29:21;8.20;99.90
2010;DHT22;1008;47.404;8.502;2023-02-22T07:31:48;8.20;99.90
2010;DHT22;1008;47.404;8.502;2023-02-22T07:34:16;9.30;99.90
2010;DHT22;1008;47.404;8.502;2023-02-22T07:36:43;9.90;99.90
2010;DHT22;1008;47.404;8.502;2023-02-22T07:39:10;10.50;99.90
2010;DHT22;1008;47.404;8.502;2023-02-22T07:41:36;11.00;99.90
2010;DHT22;1008;47.404;8.502;2023-02-22T07:44:03;11.50;99.90
2010;DHT22;1008;47.404;8.502;2023-02-22T07:46:30;11.60;99.90
2010;DHT22;1008;47.404;8.502;2023-02-22T07:48:58;11.30;99.90
2010;DHT22;1008;47.404;8.502;2023-02-22T07:51:26;10.80;99.90
2010;DHT22;1008;47.404;8.502;2023-02-22T07:53:53;10.30;99.90
2010;DHT22;1008;47.404;8.502;2023-02-22T07:56:19;9.90;99.90
2010;DHT22;1008;47.404;8.502;2023-02-22T07:58:46;9.60;99.90
2010;DHT22;1008;47.404;8.502;2023-02-22T08:01:13;9.00;99.90
2010;DHT22;1008;47.404;8.502;2023-02-22T08:03:40;8.90;99.90
2010;DHT22;1008;47.404;8.502;2023-02-22T08:06:07;8.50;99.90
2010;DHT22;1008;47.404;8.502;2023-02-22T08:08:35;8.40;99.90
2010;DHT22;1008;47.404;8.502;2023-02-22T08:11:02;8.40;99.90
2010;DHT22;1008;47.404;8.502;2023-02-22T08:13:29;8.40;99.90
2010;DHT22;1008;47.404;8.502;2023-02-22T08:15:55;8.70;99.90
2010;DHT22;1008;47.404;8.502;2023-02-22T08:18:23;8.50;99.90
2010;DHT22;1008;47.404;8.502;2023-02-22T08:20:51;8.80;99.90
2010;DHT22;1008;47.404;8.502;2023-02-22T08:23:19;9.10;99.90
2010;DHT22;1008;47.404;8.502;2023-02-22T08:25:48;9.10;99.90
2010;DHT22;1008;47.404;8.502;2023-02-22T08:28:17;9.60;99.90
2010;DHT22;1008;47.404;8.502;2023-02-22T08:30:44;9.50;99.90
2010;DHT22;1008;47.404;8.502;2023-02-22T08:33:12;9.70;99.90
2010;DHT22;1008;47.404;8.502;2023-02-22T08:35:41;9.80;99.90
2010;DHT22;1008;47.404;8.502;2023-02-22T08:38:15;9.90;99.90
2010;DHT22;1008;47.404;8.502;2023-02-22T08:40:42;10.40;99.90
2010;DHT22;1008;47.404;8.502;2023-02-22T08:43:11;10.30;99.90
2010;DHT22;1008;47.404;8.502;2023-02-22T08:45:38;10.50;99.90
2010;DHT22;1008;47.404;8.502;2023-02-22T08:48:05;11.00;99.90
2010;DHT22;1008;47.404;8.502;2023-02-22T08:50:32;10.90;99.90
2010;DHT22;1008;47.404;8.502;2023-02-22T08:53:01;10.60;99.90
2010;DHT22;1008;47.404;8.502;2023-02-22T08:55:30;11.00;99.90
2010;DHT22;1008;47.404;8.502;2023-02-22T08:57:58;11.10;99.90
2010;DHT22;1008;47.404;8.502;2023-02-22T09:00:27;11.50;99.90
2010;DHT22;1008;47.404;8.502;2023-02-22T09:02:58;11.80;99.90
2010;DHT22;1008;47.404;8.502;2023-02-22T09:05:25;11.90;99.90
2010;DHT22;1008;47.404;8.502;2023-02-22T09:07:51;12.00;99.90
2010;DHT22;1008;47.404;8.502;2023-02-22T09:10:21;12.10;99.90
2010;DHT22;1008;47.404;8.502;2023-02-22T09:12:49;12.50;99.90
2010;DHT22;1008;47.404;8.502;2023-02-22T09:15:16;12.40;99.90
2010;DHT22;1008;47.404;8.502;2023-02-22T09:17:44;12.70;99.90
2010;DHT22;1008;47.404;8.502;2023-02-22T09:20:12;12.60;99.90
2010;DHT22;1008;47.404;8.502;2023-02-22T09:22:39;12.40;99.90
2010;DHT22;1008;47.404;8.502;2023-02-22T09:25:06;12.50;99.90
2010;DHT22;1008;47.404;8.502;2023-02-22T09:27:33;12.80;99.90
2010;DHT22;1008;47.404;8.502;2023-02-22T09:30:00;13.00;99.90
2010;DHT22;1008;47.404;8.502;2023-02-22T09:32:27;13.00;99.90
2010;DHT22;1008;47.404;8.502;2023-02-22T09:34:55;13.20;99.90
2010;DHT22;1008;47.404;8.502;2023-02-22T09:37:22;13.20;99.90
2010;DHT22;1008;47.404;8.502;2023-02-22T09:39:49;13.70;99.90
2010;DHT22;1008;47.404;8.502;2023-02-22T09:42:22;13.50;99.90
2010;DHT22;1008;47.404;8.502;2023-02-22T09:44:58;13.80;99.90
2010;DHT22;1008;47.404;8.502;2023-02-22T09:47:39;14.00;99.90
2010;DHT22;1008;47.404;8.502;2023-02-22T09:50:10;14.30;99.90
2010;DHT22;1008;47.404;8.502;2023-02-22T09:52:48;14.50;99.90
2010;DHT22;1008;47.404;8.502;2023-02-22T09:55:27;14.60;99.90
2010;DHT22;1008;47.404;8.502;2023-02-22T09:57:57;14.20;99.90
2010;DHT22;1008;47.404;8.502;2023-02-22T10:00:28;14.60;99.90
2010;DHT22;1008;47.404;8.502;2023-02-22T10:03:07;14.60;99.90
2010;DHT22;1008;47.404;8.502;2023-02-22T10:05:41;15.10;99.90
2010;DHT22;1008;47.404;8.502;2023-02-22T10:08:11;14.80;99.90
2010;DHT22;1008;47.404;8.502;2023-02-22T10:10:41;14.50;99.90
2010;DHT22;1008;47.404;8.502;2023-02-22T10:13:17;14.30;99.90
2010;DHT22;1008;47.404;8.502;2023-02-22T10:15:53;14.00;99.90
2010;DHT22;1008;47.404;8.502;2023-02-22T10:18:54;13.80;99.90
2010;DHT22;1008;47.404;8.502;2023-02-22T10:21:36;14.10;99.90
2010;DHT22;1008;47.404;8.502;2023-02-22T10:24:12;14.10;99.90
2010;DHT22;1008;47.404;8.502;2023-02-22T10:26:44;14.10;99.90
2010;DHT22;1008;47.404;8.502;2023-02-22T10:29:15;14.20;99.90
2010;DHT22;1008;47.404;8.502;2023-02-22T10:31:45;13.60;99.90
2010;DHT22;1008;47.404;8.502;2023-02-22T10:34:14;13.50;99.90
2010;DHT22;1008;47.404;8.502;2023-02-22T10:36:45;13.60;99.90
2010;DHT22;1008;47.404;8.502;2023-02-22T10:39:24;13.50;99.90
2010;DHT22;1008;47.404;8.502;2023-02-22T10:41:56;13.60;99.90
2010;DHT22;1008;47.404;8.502;2023-02-22T10:44:23;13.60;99.90
2010;DHT22;1008;47.404;8.502;2023-02-22T10:46:50;13.30;99.90
2010;DHT22;1008;47.404;8.502;2023-02-22T10:49:20;13.30;99.90
2010;DHT22;1008;47.404;8.502;2023-02-22T10:51:56;13.50;99.90
2010;DHT22;1008;47.404;8.502;2023-02-22T10:54:29;13.50;99.90
2010;DHT22;1008;47.404;8.502;2023-02-22T10:56:57;13.70;99.90
2010;DHT22;1008;47.404;8.502;2023-02-22T10:59:27;13.70;99.90
2010;DHT22;1008;47.404;8.502;2023-02-22T11:01:54;13.80;99.90
2010;DHT22;1008;47.404;8.502;2023-02-22T11:04:22;13.90;99.90
2010;DHT22;1008;47.404;8.502;2023-02-22T11:07:08;13.90;99.90
2010;DHT22;1008;47.404;8.502;2023-02-22T11:09:53;14.30;99.90
2010;DHT22;1008;47.404;8.502;2023-02-22T11:12:27;14.10;99.90
2010;DHT22;1008;47.404;8.502;2023-02-22T11:14:54;14.30;99.90
2010;DHT22;1008;47.404;8.502;2023-02-22T11:17:27;14.20;99.90
2010;DHT22;1008;47.404;8.502;2023-02-22T11:19:54;14.30;99.90
2010;DHT22;1008;47.404;8.502;2023-02-22T11:22:25;14.30;99.90
2010;DHT22;1008;47.404;8.502;2023-02-22T11:24:56;14.30;99.90
2010;DHT22;1008;47.404;8.502;2023-02-22T11:27:28;14.40;99.90
2010;DHT22;1008;47.404;8.502;2023-02-22T11:30:09;14.50;99.90
2010;DHT22;1008;47.404;8.502;2023-02-22T11:32:42;14.40;99.90
2010;DHT22;1008;47.404;8.502;2023-02-22T11:38:14;14.90;99.90
2010;DHT22;1008;47.404;8.502;2023-02-22T11:40:42;14.80;99.90
2010;DHT22;1008;47.404;8.502;2023-02-22T11:43:14;15.10;99.90
2010;DHT22;1008;47.404;8.502;2023-02-22T11:45:58;15.00;99.90
2010;DHT22;1008;47.404;8.502;2023-02-22T11:48:28;14.60;99.90
2010;DHT22;1008;47.404;8.502;2023-02-22T11:51:05;14.70;99.90
2010;DHT22;1008;47.404;8.502;2023-02-22T11:53:52;14.70;99.90
2010;DHT22;1008;47.404;8.502;2023-02-22T11:56:29;14.80;99.90
2010;DHT22;1008;47.404;8.502;2023-02-22T11:59:03;15.00;99.90
2010;DHT22;1008;47.404;8.502;2023-02-22T12:01:40;15.20;99.90
2010;DHT22;1008;47.404;8.502;2023-02-22T12:04:23;15.50;99.90
2010;DHT22;1008;47.404;8.502;2023-02-22T12:06:56;15.50;99.90
2010;DHT22;1008;47.404;8.502;2023-02-22T12:09:33;14.90;99.90
2010;DHT22;1008;47.404;8.502;2023-02-22T12:12:10;15.10;99.90
2010;DHT22;1008;47.404;8.502;2023-02-22T12:14:46;15.00;99.90
2010;DHT22;1008;47.404;8.502;2023-02-22T12:17:28;14.60;99.90
2010;DHT22;1008;47.404;8.502;2023-02-22T12:20:00;14.40;99.90
2010;DHT22;1008;47.404;8.502;2023-02-22T12:22:33;14.50;99.90
2010;DHT22;1008;47.404;8.502;2023-02-22T12:25:05;14.30;99.90
2010;DHT22;1008;47.404;8.502;2023-02-22T12:27:42;14.40;99.90
2010;DHT22;1008;47.404;8.502;2023-02-22T12:30:14;14.70;99.90
2010;DHT22;1008;47.404;8.502;2023-02-22T12:32:46;15.10;99.90
2010;DHT22;1008;47.404;8.502;2023-02-22T12:35:18;15.70;99.90
2010;DHT22;1008;47.404;8.502;2023-02-22T12:37:55;15.90;99.90
2010;DHT22;1008;47.404;8.502;2023-02-22T12:40:32;15.90;99.90
2010;DHT22;1008;47.404;8.502;2023-02-22T12:43:05;15.40;98.60
2010;DHT22;1008;47.404;8.502;2023-02-22T12:45:40;15.70;98.90
2010;DHT22;1008;47.404;8.502;2023-02-22T12:48:22;16.00;98.50
2010;DHT22;1008;47.404;8.502;2023-02-22T12:50:53;16.80;98.10
2010;DHT22;1008;47.404;8.502;2023-02-22T12:53:25;17.00;96.00
2010;DHT22;1008;47.404;8.502;2023-02-22T12:55:59;17.30;95.40
2010;DHT22;1008;47.404;8.502;2023-02-22T12:58:31;16.20;93.20
2010;DHT22;1008;47.404;8.502;2023-02-22T13:01:01;15.50;93.80
2010;DHT22;1008;47.404;8.502;2023-02-22T13:03:35;15.30;95.60
2010;DHT22;1008;47.404;8.502;2023-02-22T13:06:20;15.20;96.10
2010;DHT22;1008;47.404;8.502;2023-02-22T13:09:00;14.80;97.70
2010;DHT22;1008;47.404;8.502;2023-02-22T13:11:35;14.80;98.10
2010;DHT22;1008;47.404;8.502;2023-02-22T13:14:15;15.10;98.70
2010;DHT22;1008;47.404;8.502;2023-02-22T13:16:50;15.30;98.00
2010;DHT22;1008;47.404;8.502;2023-02-22T13:19:29;15.20;98.00
2010;DHT22;1008;47.404;8.502;2023-02-22T13:22:04;15.40;98.00
2010;DHT22;1008;47.404;8.502;2023-02-22T13:27:08;15.20;98.10
2010;DHT22;1008;47.404;8.502;2023-02-22T13:29:38;15.20;98.10
2010;DHT22;1008;47.404;8.502;2023-02-22T13:32:19;14.80;98.40
2010;DHT22;1008;47.404;8.502;2023-02-22T13:35:09;15.10;97.90
2010;DHT22;1008;47.404;8.502;2023-02-22T13:37:58;15.20;98.00
2010;DHT22;1008;47.404;8.502;2023-02-22T13:40:48;15.20;97.60
2010;DHT22;1008;47.404;8.502;2023-02-22T13:43:50;15.30;97.30
2010;DHT22;1008;47.404;8.502;2023-02-22T13:46:49;15.00;98.10
2010;DHT22;1008;47.404;8.502;2023-02-22T13:49:35;15.00;98.50
2010;DHT22;1008;47.404;8.502;2023-02-22T13:52:07;15.00;97.90
2010;DHT22;1008;47.404;8.502;2023-02-22T13:54:41;14.90;98.70
2010;DHT22;1008;47.404;8.502;2023-02-22T13:57:18;14.90;98.20
2010;DHT22;1008;47.404;8.502;2023-02-22T13:59:47;15.20;97.70
2010;DHT22;1008;47.404;8.502;2023-02-22T14:02:32;15.40;98.30
2010;DHT22;1008;47.404;8.502;2023-02-22T14:05:35;15.70;98.10
2010;DHT22;1008;47.404;8.502;2023-02-22T14:08:01;15.50;97.40
2010;DHT22;1008;47.404;8.502;2023-02-22T14:10:48;15.10;97.50
2010;DHT22;1008;47.404;8.502;2023-02-22T14:13:17;15.10;98.60
2010;DHT22;1008;47.404;8.502;2023-02-22T14:16:16;14.90;98.50
2010;DHT22;1008;47.404;8.502;2023-02-22T14:18:44;14.80;99.10
2010;DHT22;1008;47.404;8.502;2023-02-22T14:21:14;14.80;99.20
2010;DHT22;1008;47.404;8.502;2023-02-22T14:23:42;14.80;99.40
2010;DHT22;1008;47.404;8.502;2023-02-22T14:26:13;14.70;99.80
2010;DHT22;1008;47.404;8.502;2023-02-22T14:28:47;14.60;99.90
2010;DHT22;1008;47.404;8.502;2023-02-22T14:31:18;14.70;99.90
2010;DHT22;1008;47.404;8.502;2023-02-22T14:33:51;14.50;99.90
2010;DHT22;1008;47.404;8.502;2023-02-22T14:36:20;14.30;99.90
2010;DHT22;1008;47.404;8.502;2023-02-22T14:38:48;14.70;99.90
2010;DHT22;1008;47.404;8.502;2023-02-22T14:41:20;14.40;99.90
2010;DHT22;1008;47.404;8.502;2023-02-22T14:43:51;14.40;99.90
2010;DHT22;1008;47.404;8.502;2023-02-22T14:46:22;14.20;99.90
2010;DHT22;1008;47.404;8.502;2023-02-22T14:48:56;14.00;99.90
2010;DHT22;1008;47.404;8.502;2023-02-22T14:51:26;13.90;99.90
2010;DHT22;1008;47.404;8.502;2023-02-22T14:54:01;13.90;99.90
2010;DHT22;1008;47.404;8.502;2023-02-22T14:56:33;13.90;99.90
2010;DHT22;1008;47.404;8.502;2023-02-22T14:59:14;13.90;99.90
2010;DHT22;1008;47.404;8.502;2023-02-22T15:01:43;14.00;99.90
2010;DHT22;1008;47.404;8.502;2023-02-22T15:04:19;14.20;99.90
2010;DHT22;1008;47.404;8.502;2023-02-22T15:06:47;14.00;99.90
2010;DHT22;1008;47.404;8.502;2023-02-22T15:09:16;13.90;99.90
2010;DHT22;1008;47.404;8.502;2023-02-22T15:11:49;13.80;99.90
2010;DHT22;1008;47.404;8.502;2023-02-22T15:14:19;13.70;99.90
2010;DHT22;1008;47.404;8.502;2023-02-22T15:16:49;13.90;99.90
2010;DHT22;1008;47.404;8.502;2023-02-22T15:19:21;13.90;99.90
2010;DHT22;1008;47.404;8.502;2023-02-22T15:21:49;13.80;99.90
2010;DHT22;1008;47.404;8.502;2023-02-22T15:24:20;13.60;99.90
2010;DHT22;1008;47.404;8.502;2023-02-22T15:26:48;13.40;99.90
2010;DHT22;1008;47.404;8.502;2023-02-22T15:29:19;13.30;99.90
2010;DHT22;1008;47.404;8.502;2023-02-22T15:31:49;13.30;99.90
2010;DHT22;1008;47.404;8.502;2023-02-22T15:34:18;13.20;99.90
2010;DHT22;1008;47.404;8.502;2023-02-22T15:36:49;13.20;99.90
2010;DHT22;1008;47.404;8.502;2023-02-22T15:39:20;13.10;99.90
2010;DHT22;1008;47.404;8.502;2023-02-22T15:42:00;13.00;99.90
2010;DHT22;1008;47.404;8.502;2023-02-22T15:44:27;13.00;99.90
2010;DHT22;1008;47.404;8.502;2023-02-22T15:46:56;13.10;99.90
2010;DHT22;1008;47.404;8.502;2023-02-22T15:49:23;13.00;99.90
2010;DHT22;1008;47.404;8.502;2023-02-22T15:52:02;13.20;99.90
2010;DHT22;1008;47.404;8.502;2023-02-22T15:54:33;13.50;99.90
2010;DHT22;1008;47.404;8.502;2023-02-22T15:57:02;13.30;99.90
2010;DHT22;1008;47.404;8.502;2023-02-22T15:59:29;13.40;99.90
2010;DHT22;1008;47.404;8.502;2023-02-22T16:02:00;13.40;99.90
2010;DHT22;1008;47.404;8.502;2023-02-22T16:04:28;13.40;99.90
2010;DHT22;1008;47.404;8.502;2023-02-22T16:07:03;13.40;99.90
2010;DHT22;1008;47.404;8.502;2023-02-22T16:09:33;13.30;99.90
2010;DHT22;1008;47.404;8.502;2023-02-22T16:12:07;13.10;99.90
2010;DHT22;1008;47.404;8.502;2023-02-22T16:14:40;13.10;99.90
2010;DHT22;1008;47.404;8.502;2023-02-22T16:17:18;13.00;99.90
2010;DHT22;1008;47.404;8.502;2023-02-22T16:19:50;12.90;99.90
2010;DHT22;1008;47.404;8.502;2023-02-22T16:22:27;12.90;99.90
2010;DHT22;1008;47.404;8.502;2023-02-22T16:25:22;12.90;99.90
2010;DHT22;1008;47.404;8.502;2023-02-22T16:27:53;13.00;99.90
2010;DHT22;1008;47.404;8.502;2023-02-22T16:30:25;12.80;99.90
2010;DHT22;1008;47.404;8.502;2023-02-22T16:32:54;12.80;99.90
2010;DHT22;1008;47.404;8.502;2023-02-22T16:35:24;12.90;99.90
2010;DHT22;1008;47.404;8.502;2023-02-22T16:37:56;12.90;99.90
2010;DHT22;1008;47.404;8.502;2023-02-22T16:40:25;12.80;99.90